Jordan Valley, OR (97910)

5:58 PM MST on February 09, 2016 (GMT -0700)
Nampa | | Change Station
CLOSE
Current Station
Airport
Location: Nampa,
Elevation: 2536 ft
Nearby Weather Stations

Elev 2536 ft 43.58 °N, 116.52 °W | Updated 3 minutes ago

Clear
Clear
39 °F
Feels Like 36 °F
N
5
Wind Variable Wind from NW

Today
High -- | Low -- °F
--% Chance of Precip.
Yesterday
High -- | Low -- °F
Precip. -- in
Pressure 30.46 in
Visibility 10.0 miles
Clouds Clear
Windchill 36 °F
Dew Point 32 °F
Humidity 75%
Rainfall 0.00 in
Snow Depth Not available.
7:54 AM 6:11 PM
Waxing Crescent, 3% visible
METAR KMAN 100055Z AUTO 31004KT 10SM CLR 04/M00 A3046 RMK A01
Pressure 30.46 in
Visibility 10.0 miles
Clouds Clear
Windchill 36 °F
Dew Point 32 °F
Humidity 75%
Rainfall 0.00 in
Snow Depth Not available.
7:54 AM 6:11 PM
Waxing Crescent, 3% visible
METAR KMAN 100055Z AUTO 31004KT 10SM CLR 04/M00 A3046 RMK A01

10-Day Weather Forecast

Almanac

Astronomy

Feb. 09, 2016 Rise Set
Actual Time
Civil Twilight
Nautical Twilight
Astronomical Twilight
Moon
Length of Visible Light
Length of Day
Tomorrow will be .
, % of the Moon is Illuminated

Today's Extremes

State Highs State Lows

Community

WunderPhotos

Upload Photos

1,891,752 photos uploaded!

WunderBlog® & News

Nearby

Air Quality

  Air Quality AQ Index Pollutant
Not available.

Snow Depth

Station Depth Elevation

Earthquake Activity

City Distance Mag. Time & Date
Minimum magnitude displayed is 2.5.

Coastal Water Temperatures

Place Temperature

Stations

Nearby Weather Stations

Station Location Temp. Windchill Dew Point Humidity Wind Precip. Elev Updated Type
                   

Watches & Warnings

There are currently no watches in effect.